sensor_id;sensor_type;location;lat;lon;timestamp;temperature;humidity
23188;DHT22;11762;59.878;17.686;2024-01-27T02:43:17;0.30;99.90
23188;DHT22;11762;59.878;17.686;2024-01-27T02:45:44;0.20;99.90
23188;DHT22;11762;59.878;17.686;2024-01-27T02:48:11;0.20;99.90
23188;DHT22;11762;59.878;17.686;2024-01-27T02:50:38;0.20;99.90
23188;DHT22;11762;59.878;17.686;2024-01-27T02:53:05;0.10;99.90
23188;DHT22;11762;59.878;17.686;2024-01-27T02:55:32;0.10;99.90
23188;DHT22;11762;59.878;17.686;2024-01-27T02:57:59;0.10;99.90
23188;DHT22;11762;59.878;17.686;2024-01-27T03:00:27;0.10;99.90
23188;DHT22;11762;59.878;17.686;2024-01-27T03:02:54;0.10;99.90
23188;DHT22;11762;59.878;17.686;2024-01-27T03:05:23;0.10;99.90
23188;DHT22;11762;59.878;17.686;2024-01-27T03:07:50;0.10;99.90
23188;DHT22;11762;59.878;17.686;2024-01-27T03:10:18;0.10;99.90
23188;DHT22;11762;59.878;17.686;2024-01-27T03:12:45;0.10;99.90
23188;DHT22;11762;59.878;17.686;2024-01-27T03:15:12;0.00;99.90
23188;DHT22;11762;59.878;17.686;2024-01-27T03:17:41;0.10;99.90
23188;DHT22;11762;59.878;17.686;2024-01-27T03:20:09;0.10;99.90
23188;DHT22;11762;59.878;17.686;2024-01-27T03:22:36;0.10;99.90
23188;DHT22;11762;59.878;17.686;2024-01-27T03:25:04;0.00;99.90
23188;DHT22;11762;59.878;17.686;2024-01-27T03:27:31;0.00;99.90
23188;DHT22;11762;59.878;17.686;2024-01-27T03:30:00;0.00;99.90
23188;DHT22;11762;59.878;17.686;2024-01-27T03:32:28;-0.10;99.90
23188;DHT22;11762;59.878;17.686;2024-01-27T03:34:58;-0.10;99.90
23188;DHT22;11762;59.878;17.686;2024-01-27T03:37:25;-0.10;99.90
23188;DHT22;11762;59.878;17.686;2024-01-27T03:39:52;-0.10;99.90
23188;DHT22;11762;59.878;17.686;2024-01-27T03:42:20;-0.10;99.90
23188;DHT22;11762;59.878;17.686;2024-01-27T03:44:46;-0.10;99.90
23188;DHT22;11762;59.878;17.686;2024-01-27T03:47:14;-0.10;99.90
23188;DHT22;11762;59.878;17.686;2024-01-27T03:49:41;-0.10;99.90
23188;DHT22;11762;59.878;17.686;2024-01-27T03:52:10;-0.20;99.90
23188;DHT22;11762;59.878;17.686;2024-01-27T03:54:37;-0.20;99.90
23188;DHT22;11762;59.878;17.686;2024-01-27T03:57:05;-0.20;99.90
23188;DHT22;11762;59.878;17.686;2024-01-27T03:59:32;-0.10;99.90
23188;DHT22;11762;59.878;17.686;2024-01-27T04:01:59;-0.10;99.90
23188;DHT22;11762;59.878;17.686;2024-01-27T04:04:26;-0.10;99.90
23188;DHT22;11762;59.878;17.686;2024-01-27T04:06:53;-0.10;99.90
23188;DHT22;11762;59.878;17.686;2024-01-27T04:09:21;-0.10;99.90
23188;DHT22;11762;59.878;17.686;2024-01-27T04:11:49;-0.10;99.90
23188;DHT22;11762;59.878;17.686;2024-01-27T04:14:16;-0.10;99.90
23188;DHT22;11762;59.878;17.686;2024-01-27T04:16:43;-0.10;99.90
23188;DHT22;11762;59.878;17.686;2024-01-27T04:19:10;-0.10;99.90
23188;DHT22;11762;59.878;17.686;2024-01-27T04:21:37;-0.10;99.90
23188;DHT22;11762;59.878;17.686;2024-01-27T04:24:05;-0.10;99.90
23188;DHT22;11762;59.878;17.686;2024-01-27T04:26:33;-0.10;99.90
23188;DHT22;11762;59.878;17.686;2024-01-27T04:29:00;-0.10;99.90
23188;DHT22;11762;59.878;17.686;2024-01-27T04:31:27;-0.10;99.90
23188;DHT22;11762;59.878;17.686;2024-01-27T04:33:56;-0.20;99.90
23188;DHT22;11762;59.878;17.686;2024-01-27T04:36:27;-0.20;99.90
23188;DHT22;11762;59.878;17.686;2024-01-27T04:38:54;-0.20;99.90
23188;DHT22;11762;59.878;17.686;2024-01-27T04:41:21;-0.20;99.90
23188;DHT22;11762;59.878;17.686;2024-01-27T04:43:50;-0.20;99.90
23188;DHT22;11762;59.878;17.686;2024-01-27T04:46:18;-0.20;99.90
23188;DHT22;11762;59.878;17.686;2024-01-27T04:48:46;-0.20;99.90
23188;DHT22;11762;59.878;17.686;2024-01-27T04:51:13;-0.20;99.90
23188;DHT22;11762;59.878;17.686;2024-01-27T04:53:40;-0.30;99.90
23188;DHT22;11762;59.878;17.686;2024-01-27T04:56:07;-0.30;99.90
23188;DHT22;11762;59.878;17.686;2024-01-27T04:58:35;-0.40;99.90
23188;DHT22;11762;59.878;17.686;2024-01-27T05:01:04;-0.40;99.90
23188;DHT22;11762;59.878;17.686;2024-01-27T05:03:32;-0.40;99.90
23188;DHT22;11762;59.878;17.686;2024-01-27T05:05:59;-0.40;99.90
23188;DHT22;11762;59.878;17.686;2024-01-27T05:08:26;-0.50;99.90
23188;DHT22;11762;59.878;17.686;2024-01-27T05:10:53;-0.50;99.90
23188;DHT22;11762;59.878;17.686;2024-01-27T05:13:20;-0.60;99.90
23188;DHT22;11762;59.878;17.686;2024-01-27T05:15:47;-0.60;99.90
23188;DHT22;11762;59.878;17.686;2024-01-27T05:18:16;-0.60;99.90
23188;DHT22;11762;59.878;17.686;2024-01-27T05:20:43;-0.70;99.90
23188;DHT22;11762;59.878;17.686;2024-01-27T05:23:10;-0.70;99.90
23188;DHT22;11762;59.878;17.686;2024-01-27T05:25:37;-0.70;99.90
23188;DHT22;11762;59.878;17.686;2024-01-27T05:28:05;-0.70;99.90
23188;DHT22;11762;59.878;17.686;2024-01-27T05:30:32;-0.80;99.90
23188;DHT22;11762;59.878;17.686;2024-01-27T05:32:59;-0.80;99.90
23188;DHT22;11762;59.878;17.686;2024-01-27T05:35:28;-0.90;99.90
23188;DHT22;11762;59.878;17.686;2024-01-27T05:37:55;-1.00;99.90
23188;DHT22;11762;59.878;17.686;2024-01-27T05:40:23;-0.90;99.90
23188;DHT22;11762;59.878;17.686;2024-01-27T05:42:50;-1.00;99.90
23188;DHT22;11762;59.878;17.686;2024-01-27T05:45:17;-1.00;99.90
23188;DHT22;11762;59.878;17.686;2024-01-27T05:47:44;-1.00;99.90
23188;DHT22;11762;59.878;17.686;2024-01-27T05:50:11;-1.00;99.90
23188;DHT22;11762;59.878;17.686;2024-01-27T05:52:40;-1.00;99.90
23188;DHT22;11762;59.878;17.686;2024-01-27T05:55:07;-1.00;99.90
23188;DHT22;11762;59.878;17.686;2024-01-27T05:57:35;-1.00;99.90
23188;DHT22;11762;59.878;17.686;2024-01-27T06:00:03;-1.00;99.90
23188;DHT22;11762;59.878;17.686;2024-01-27T06:02:31;-0.90;99.90
23188;DHT22;11762;59.878;17.686;2024-01-27T06:04:57;-1.00;99.90
23188;DHT22;11762;59.878;17.686;2024-01-27T06:07:25;-1.00;99.90
23188;DHT22;11762;59.878;17.686;2024-01-27T06:09:53;-0.90;99.90
23188;DHT22;11762;59.878;17.686;2024-01-27T06:12:20;-1.00;99.90
23188;DHT22;11762;59.878;17.686;2024-01-27T06:14:47;-1.00;99.90
23188;DHT22;11762;59.878;17.686;2024-01-27T06:17:14;-1.00;99.90
23188;DHT22;11762;59.878;17.686;2024-01-27T06:19:41;-1.00;99.90
23188;DHT22;11762;59.878;17.686;2024-01-27T06:22:08;-1.00;99.90
23188;DHT22;11762;59.878;17.686;2024-01-27T06:24:42;-1.00;99.90
23188;DHT22;11762;59.878;17.686;2024-01-27T06:27:10;-1.10;99.90
23188;DHT22;11762;59.878;17.686;2024-01-27T06:29:37;-1.10;99.90
23188;DHT22;11762;59.878;17.686;2024-01-27T06:32:05;-1.10;99.90
23188;DHT22;11762;59.878;17.686;2024-01-27T06:34:32;-1.20;99.90
23188;DHT22;11762;59.878;17.686;2024-01-27T06:36:59;-1.20;99.90
23188;DHT22;11762;59.878;17.686;2024-01-27T06:39:27;-1.30;99.90
23188;DHT22;11762;59.878;17.686;2024-01-27T06:41:55;-1.30;99.90
23188;DHT22;11762;59.878;17.686;2024-01-27T06:44:23;-1.30;99.90
23188;DHT22;11762;59.878;17.686;2024-01-27T06:46:50;-1.40;99.90
23188;DHT22;11762;59.878;17.686;2024-01-27T06:49:17;-1.40;99.90
23188;DHT22;11762;59.878;17.686;2024-01-27T06:51:44;-1.40;99.90
23188;DHT22;11762;59.878;17.686;2024-01-27T06:54:11;-1.40;99.90
23188;DHT22;11762;59.878;17.686;2024-01-27T06:56:38;-1.40;99.90
23188;DHT22;11762;59.878;17.686;2024-01-27T06:59:05;-1.50;99.90
23188;DHT22;11762;59.878;17.686;2024-01-27T07:01:34;-1.50;99.90
23188;DHT22;11762;59.878;17.686;2024-01-27T07:04:00;-1.50;99.90
23188;DHT22;11762;59.878;17.686;2024-01-27T07:06:27;-1.50;99.90
23188;DHT22;11762;59.878;17.686;2024-01-27T07:08:54;-1.50;99.90
23188;DHT22;11762;59.878;17.686;2024-01-27T07:11:21;-1.50;99.90
23188;DHT22;11762;59.878;17.686;2024-01-27T07:13:49;-1.50;99.90
23188;DHT22;11762;59.878;17.686;2024-01-27T07:16:16;-1.50;99.90
23188;DHT22;11762;59.878;17.686;2024-01-27T07:18:44;-1.50;99.90
23188;DHT22;11762;59.878;17.686;2024-01-27T07:21:15;-1.50;99.90
23188;DHT22;11762;59.878;17.686;2024-01-27T07:23:42;-1.50;99.90
23188;DHT22;11762;59.878;17.686;2024-01-27T07:26:09;-1.60;99.90
23188;DHT22;11762;59.878;17.686;2024-01-27T07:28:37;-1.60;99.90
23188;DHT22;11762;59.878;17.686;2024-01-27T07:31:05;-1.60;99.90
23188;DHT22;11762;59.878;17.686;2024-01-27T07:33:32;-1.60;99.90
23188;DHT22;11762;59.878;17.686;2024-01-27T07:36:00;-1.60;99.90
23188;DHT22;11762;59.878;17.686;2024-01-27T07:38:27;-1.60;99.90
23188;DHT22;11762;59.878;17.686;2024-01-27T07:40:54;-1.70;99.90
23188;DHT22;11762;59.878;17.686;2024-01-27T07:43:21;-1.60;99.90
23188;DHT22;11762;59.878;17.686;2024-01-27T07:45:48;-1.70;99.90
23188;DHT22;11762;59.878;17.686;2024-01-27T07:48:17;-1.70;99.90
23188;DHT22;11762;59.878;17.686;2024-01-27T07:50:44;-1.70;99.90
23188;DHT22;11762;59.878;17.686;2024-01-27T07:53:15;-1.70;99.90
23188;DHT22;11762;59.878;17.686;2024-01-27T07:55:43;-1.70;99.90
23188;DHT22;11762;59.878;17.686;2024-01-27T07:58:10;-1.70;99.90
23188;DHT22;11762;59.878;17.686;2024-01-27T08:00:37;-1.70;99.90
23188;DHT22;11762;59.878;17.686;2024-01-27T08:03:04;-1.70;99.90
23188;DHT22;11762;59.878;17.686;2024-01-27T08:05:31;-1.70;99.90
23188;DHT22;11762;59.878;17.686;2024-01-27T08:07:58;-1.60;99.90
23188;DHT22;11762;59.878;17.686;2024-01-27T08:10:27;-1.60;99.90
23188;DHT22;11762;59.878;17.686;2024-01-27T08:12:54;-1.60;99.90
23188;DHT22;11762;59.878;17.686;2024-01-27T08:15:21;-1.60;99.90
23188;DHT22;11762;59.878;17.686;2024-01-27T08:17:48;-1.60;99.90
23188;DHT22;11762;59.878;17.686;2024-01-27T08:20:15;-1.50;99.90
23188;DHT22;11762;59.878;17.686;2024-01-27T08:22:42;-1.50;99.90
23188;DHT22;11762;59.878;17.686;2024-01-27T08:25:09;-1.40;99.90
23188;DHT22;11762;59.878;17.686;2024-01-27T08:27:37;-1.40;99.90
23188;DHT22;11762;59.878;17.686;2024-01-27T08:30:05;-1.30;99.90
23188;DHT22;11762;59.878;17.686;2024-01-27T08:32:33;-1.20;99.90
23188;DHT22;11762;59.878;17.686;2024-01-27T08:35:00;-1.10;99.90
23188;DHT22;11762;59.878;17.686;2024-01-27T08:37:27;-1.10;99.90
23188;DHT22;11762;59.878;17.686;2024-01-27T08:39:55;-1.00;99.90
23188;DHT22;11762;59.878;17.686;2024-01-27T08:42:22;-1.00;99.90
23188;DHT22;11762;59.878;17.686;2024-01-27T08:44:50;-0.90;99.90
23188;DHT22;11762;59.878;17.686;2024-01-27T08:47:18;-0.90;99.90
23188;DHT22;11762;59.878;17.686;2024-01-27T08:49:44;-0.80;99.90
23188;DHT22;11762;59.878;17.686;2024-01-27T08:52:12;-0.80;99.90
23188;DHT22;11762;59.878;17.686;2024-01-27T08:54:39;-0.70;99.90
23188;DHT22;11762;59.878;17.686;2024-01-27T08:57:06;-0.70;99.90
23188;DHT22;11762;59.878;17.686;2024-01-27T08:59:33;-0.70;99.90
23188;DHT22;11762;59.878;17.686;2024-01-27T09:02:03;-0.60;99.90
23188;DHT22;11762;59.878;17.686;2024-01-27T09:04:30;-0.60;99.90
23188;DHT22;11762;59.878;17.686;2024-01-27T09:06:57;-0.50;99.90
23188;DHT22;11762;59.878;17.686;2024-01-27T09:09:24;-0.40;99.90
23188;DHT22;11762;59.878;17.686;2024-01-27T09:11:52;-0.40;99.90
23188;DHT22;11762;59.878;17.686;2024-01-27T09:14:19;-0.40;99.90
23188;DHT22;11762;59.878;17.686;2024-01-27T09:16:46;-0.30;99.90
23188;DHT22;11762;59.878;17.686;2024-01-27T09:19:14;-0.30;99.90
23188;DHT22;11762;59.878;17.686;2024-01-27T09:21:41;-0.30;99.90
23188;DHT22;11762;59.878;17.686;2024-01-27T09:24:08;-0.30;99.90
23188;DHT22;11762;59.878;17.686;2024-01-27T09:26:35;-0.20;99.90
23188;DHT22;11762;59.878;17.686;2024-01-27T09:29:02;-0.20;99.90
23188;DHT22;11762;59.878;17.686;2024-01-27T09:31:29;-0.20;99.90
23188;DHT22;11762;59.878;17.686;2024-01-27T09:33:56;-0.20;99.90
23188;DHT22;11762;59.878;17.686;2024-01-27T09:36:25;-0.10;99.90
23188;DHT22;11762;59.878;17.686;2024-01-27T09:38:51;-0.10;99.90
23188;DHT22;11762;59.878;17.686;2024-01-27T09:41:20;-0.10;99.90
23188;DHT22;11762;59.878;17.686;2024-01-27T09:43:47;-0.10;99.90
23188;DHT22;11762;59.878;17.686;2024-01-27T09:46:15;0.00;99.90
23188;DHT22;11762;59.878;17.686;2024-01-27T09:48:43;0.00;99.90
23188;DHT22;11762;59.878;17.686;2024-01-27T09:51:10;0.10;99.90
23188;DHT22;11762;59.878;17.686;2024-01-27T09:53:39;0.20;99.90
23188;DHT22;11762;59.878;17.686;2024-01-27T09:56:06;0.20;99.90
23188;DHT22;11762;59.878;17.686;2024-01-27T09:58:34;0.20;99.90
23188;DHT22;11762;59.878;17.686;2024-01-27T10:01:01;0.30;99.90
23188;DHT22;11762;59.878;17.686;2024-01-27T10:03:30;0.30;99.90
23188;DHT22;11762;59.878;17.686;2024-01-27T10:05:57;0.40;99.90
23188;DHT22;11762;59.878;17.686;2024-01-27T10:08:24;0.40;99.90
23188;DHT22;11762;59.878;17.686;2024-01-27T10:10:54;0.50;99.90
23188;DHT22;11762;59.878;17.686;2024-01-27T10:13:24;0.50;99.90
23188;DHT22;11762;59.878;17.686;2024-01-27T10:16:02;0.60;99.90
23188;DHT22;11762;59.878;17.686;2024-01-27T10:18:29;0.60;99.90
23188;DHT22;11762;59.878;17.686;2024-01-27T10:20:57;0.70;99.90
23188;DHT22;11762;59.878;17.686;2024-01-27T10:23:24;0.70;99.90
23188;DHT22;11762;59.878;17.686;2024-01-27T10:25:53;0.70;99.90
23188;DHT22;11762;59.878;17.686;2024-01-27T10:28:20;0.70;99.90
23188;DHT22;11762;59.878;17.686;2024-01-27T10:30:48;0.80;99.90
23188;DHT22;11762;59.878;17.686;2024-01-27T10:33:18;0.80;99.90
23188;DHT22;11762;59.878;17.686;2024-01-27T10:35:45;0.80;99.90
23188;DHT22;11762;59.878;17.686;2024-01-27T10:38:13;0.80;99.90
23188;DHT22;11762;59.878;17.686;2024-01-27T10:40:40;0.80;99.90
23188;DHT22;11762;59.878;17.686;2024-01-27T10:43:08;0.80;99.90
23188;DHT22;11762;59.878;17.686;2024-01-27T10:45:37;0.90;99.90
23188;DHT22;11762;59.878;17.686;2024-01-27T10:48:06;0.90;99.90
23188;DHT22;11762;59.878;17.686;2024-01-27T10:50:36;0.90;99.90
23188;DHT22;11762;59.878;17.686;2024-01-27T10:53:04;0.90;99.90
23188;DHT22;11762;59.878;17.686;2024-01-27T10:55:33;0.90;99.90
23188;DHT22;11762;59.878;17.686;2024-01-27T10:58:01;1.00;99.90
23188;DHT22;11762;59.878;17.686;2024-01-27T11:00:31;1.00;99.90
23188;DHT22;11762;59.878;17.686;2024-01-27T11:03:02;1.00;99.90
23188;DHT22;11762;59.878;17.686;2024-01-27T11:05:31;1.00;99.90
23188;DHT22;11762;59.878;17.686;2024-01-27T11:08:02;1.00;99.90
23188;DHT22;11762;59.878;17.686;2024-01-27T11:10:31;1.10;99.90
23188;DHT22;11762;59.878;17.686;2024-01-27T11:13:02;1.10;99.90
23188;DHT22;11762;59.878;17.686;2024-01-27T11:15:32;1.10;99.90
23188;DHT22;11762;59.878;17.686;2024-01-27T11:17:59;1.20;99.90
23188;DHT22;11762;59.878;17.686;2024-01-27T11:20:30;1.20;99.90
23188;DHT22;11762;59.878;17.686;2024-01-27T11:23:08;1.20;99.90
23188;DHT22;11762;59.878;17.686;2024-01-27T11:25:35;1.20;99.90
23188;DHT22;11762;59.878;17.686;2024-01-27T11:28:11;1.20;99.90
23188;DHT22;11762;59.878;17.686;2024-01-27T11:30:44;1.20;99.90
23188;DHT22;11762;59.878;17.686;2024-01-27T11:33:11;1.20;99.90
23188;DHT22;11762;59.878;17.686;2024-01-27T11:35:38;1.20;99.90
23188;DHT22;11762;59.878;17.686;2024-01-27T11:38:05;1.20;99.90
23188;DHT22;11762;59.878;17.686;2024-01-27T11:40:32;1.20;99.90
23188;DHT22;11762;59.878;17.686;2024-01-27T11:43:01;1.10;99.90
23188;DHT22;11762;59.878;17.686;2024-01-27T11:45:30;1.10;99.90
23188;DHT22;11762;59.878;17.686;2024-01-27T11:48:00;1.10;99.90
23188;DHT22;11762;59.878;17.686;2024-01-27T11:50:27;1.10;99.90
23188;DHT22;11762;59.878;17.686;2024-01-27T11:52:54;1.10;99.90
23188;DHT22;11762;59.878;17.686;2024-01-27T11:55:21;1.10;99.90
23188;DHT22;11762;59.878;17.686;2024-01-27T11:57:48;1.10;99.90
23188;DHT22;11762;59.878;17.686;2024-01-27T12:00:15;1.10;99.90
23188;DHT22;11762;59.878;17.686;2024-01-27T12:02:43;1.10;99.90
23188;DHT22;11762;59.878;17.686;2024-01-27T12:05:11;1.20;99.90
23188;DHT22;11762;59.878;17.686;2024-01-27T12:07:39;1.20;99.90
23188;DHT22;11762;59.878;17.686;2024-01-27T12:10:06;1.20;99.90
23188;DHT22;11762;59.878;17.686;2024-01-27T12:12:33;1.20;99.90
23188;DHT22;11762;59.878;17.686;2024-01-27T12:15:00;1.20;99.90
23188;DHT22;11762;59.878;17.686;2024-01-27T12:17:28;1.30;99.90
23188;DHT22;11762;59.878;17.686;2024-01-27T12:19:55;1.30;99.90
23188;DHT22;11762;59.878;17.686;2024-01-27T12:22:24;1.30;99.90
23188;DHT22;11762;59.878;17.686;2024-01-27T12:24:51;1.40;99.90
23188;DHT22;11762;59.878;17.686;2024-01-27T12:27:18;1.30;99.90
23188;DHT22;11762;59.878;17.686;2024-01-27T12:29:47;1.30;99.90
23188;DHT22;11762;59.878;17.686;2024-01-27T12:32:15;1.30;99.90
23188;DHT22;11762;59.878;17.686;2024-01-27T12:34:42;1.30;99.90
23188;DHT22;11762;59.878;17.686;2024-01-27T12:37:11;1.30;99.90
23188;DHT22;11762;59.878;17.686;2024-01-27T12:39:42;1.30;99.90
23188;DHT22;11762;59.878;17.686;2024-01-27T12:42:10;1.30;99.90
23188;DHT22;11762;59.878;17.686;2024-01-27T12:44:37;1.30;99.90
23188;DHT22;11762;59.878;17.686;2024-01-27T12:47:04;1.20;99.90
23188;DHT22;11762;59.878;17.686;2024-01-27T12:49:31;1.20;99.90
23188;DHT22;11762;59.878;17.686;2024-01-27T12:51:58;1.20;99.90
23188;DHT22;11762;59.878;17.686;2024-01-27T12:54:25;1.10;99.90
23188;DHT22;11762;59.878;17.686;2024-01-27T12:56:54;1.00;99.90
23188;DHT22;11762;59.878;17.686;2024-01-27T12:59:21;1.10;99.90
23188;DHT22;11762;59.878;17.686;2024-01-27T13:01:49;1.00;99.90
23188;DHT22;11762;59.878;17.686;2024-01-27T13:04:16;1.00;99.90
23188;DHT22;11762;59.878;17.686;2024-01-27T13:06:43;1.00;99.90
23188;DHT22;11762;59.878;17.686;2024-01-27T13:09:10;1.00;99.90
23188;DHT22;11762;59.878;17.686;2024-01-27T13:11:38;1.00;99.90
23188;DHT22;11762;59.878;17.686;2024-01-27T13:14:06;0.90;99.90
23188;DHT22;11762;59.878;17.686;2024-01-27T13:16:35;1.00;99.90
23188;DHT22;11762;59.878;17.686;2024-01-27T13:19:03;0.90;99.90
23188;DHT22;11762;59.878;17.686;2024-01-27T13:21:30;0.90;99.90
23188;DHT22;11762;59.878;17.686;2024-01-27T13:23:57;0.90;99.90
23188;DHT22;11762;59.878;17.686;2024-01-27T13:26:24;0.80;99.90
23188;DHT22;11762;59.878;17.686;2024-01-27T13:28:51;0.80;99.90
23188;DHT22;11762;59.878;17.686;2024-01-27T13:31:19;0.70;99.90
23188;DHT22;11762;59.878;17.686;2024-01-27T13:33:46;0.70;99.90
23188;DHT22;11762;59.878;17.686;2024-01-27T13:36:14;0.70;99.90
23188;DHT22;11762;59.878;17.686;2024-01-27T13:38:41;0.60;99.90
23188;DHT22;11762;59.878;17.686;2024-01-27T13:41:08;0.60;99.90
23188;DHT22;11762;59.878;17.686;2024-01-27T13:43:35;0.60;99.90
23188;DHT22;11762;59.878;17.686;2024-01-27T13:46:02;0.60;99.90
23188;DHT22;11762;59.878;17.686;2024-01-27T13:48:31;0.60;99.90
23188;DHT22;11762;59.878;17.686;2024-01-27T13:50:58;0.60;99.90
23188;DHT22;11762;59.878;17.686;2024-01-27T13:53:25;0.50;99.90
23188;DHT22;11762;59.878;17.686;2024-01-27T13:55:52;0.50;99.90
23188;DHT22;11762;59.878;17.686;2024-01-27T13:58:20;0.50;99.90
23188;DHT22;11762;59.878;17.686;2024-01-27T14:00:47;0.50;99.90
23188;DHT22;11762;59.878;17.686;2024-01-27T14:03:14;0.40;99.90
23188;DHT22;11762;59.878;17.686;2024-01-27T14:05:43;0.40;99.90
23188;DHT22;11762;59.878;17.686;2024-01-27T14:08:12;0.40;99.90
23188;DHT22;11762;59.878;17.686;2024-01-27T14:10:39;0.40;99.90
23188;DHT22;11762;59.878;17.686;2024-01-27T14:13:08;0.30;99.90
23188;DHT22;11762;59.878;17.686;2024-01-27T14:15:35;0.30;99.90
23188;DHT22;11762;59.878;17.686;2024-01-27T14:18:03;0.30;99.90
23188;DHT22;11762;59.878;17.686;2024-01-27T14:20:31;0.30;99.90
23188;DHT22;11762;59.878;17.686;2024-01-27T14:23:00;0.30;99.90
23188;DHT22;11762;59.878;17.686;2024-01-27T14:25:27;0.30;99.90
23188;DHT22;11762;59.878;17.686;2024-01-27T14:27:54;0.20;99.90
23188;DHT22;11762;59.878;17.686;2024-01-27T14:30:21;0.20;99.90
23188;DHT22;11762;59.878;17.686;2024-01-27T14:32:49;0.20;99.90
23188;DHT22;11762;59.878;17.686;2024-01-27T14:35:16;0.20;99.90
23188;DHT22;11762;59.878;17.686;2024-01-27T14:37:43;0.10;99.90
23188;DHT22;11762;59.878;17.686;2024-01-27T14:40:12;0.10;99.90
23188;DHT22;11762;59.878;17.686;2024-01-27T14:42:40;0.10;99.90
23188;DHT22;11762;59.878;17.686;2024-01-27T14:45:08;0.00;99.90
23188;DHT22;11762;59.878;17.686;2024-01-27T14:47:35;0.00;99.90
23188;DHT22;11762;59.878;17.686;2024-01-27T14:50:03;-0.10;99.90
23188;DHT22;11762;59.878;17.686;2024-01-27T14:52:31;-0.10;99.90
23188;DHT22;11762;59.878;17.686;2024-01-27T14:54:58;-0.10;99.90
23188;DHT22;11762;59.878;17.686;2024-01-27T14:57:27;-0.10;99.90
23188;DHT22;11762;59.878;17.686;2024-01-27T14:59:54;-0.20;99.90
23188;DHT22;11762;59.878;17.686;2024-01-27T15:02:21;-0.20;99.90
23188;DHT22;11762;59.878;17.686;2024-01-27T15:04:48;-0.20;99.90
23188;DHT22;11762;59.878;17.686;2024-01-27T15:07:15;-0.20;99.90
23188;DHT22;11762;59.878;17.686;2024-01-27T15:09:43;-0.30;99.90
23188;DHT22;11762;59.878;17.686;2024-01-27T15:12:10;-0.30;99.90
23188;DHT22;11762;59.878;17.686;2024-01-27T15:14:38;-0.30;99.90
23188;DHT22;11762;59.878;17.686;2024-01-27T15:17:06;-0.30;99.90
23188;DHT22;11762;59.878;17.686;2024-01-27T15:19:34;-0.30;99.90
23188;DHT22;11762;59.878;17.686;2024-01-27T15:22:01;-0.40;99.90
23188;DHT22;11762;59.878;17.686;2024-01-27T15:24:28;-0.40;99.90
23188;DHT22;11762;59.878;17.686;2024-01-27T15:26:59;-0.40;99.90
23188;DHT22;11762;59.878;17.686;2024-01-27T15:29:26;-0.40;99.90
23188;DHT22;11762;59.878;17.686;2024-01-27T15:31:54;-0.40;99.90
23188;DHT22;11762;59.878;17.686;2024-01-27T15:34:21;-0.40;99.90
23188;DHT22;11762;59.878;17.686;2024-01-27T15:36:48;-0.40;99.90
23188;DHT22;11762;59.878;17.686;2024-01-27T15:39:15;-0.40;99.90
23188;DHT22;11762;59.878;17.686;2024-01-27T15:41:42;-0.40;99.90
23188;DHT22;11762;59.878;17.686;2024-01-27T15:44:09;-0.40;99.90
23188;DHT22;11762;59.878;17.686;2024-01-27T15:46:36;-0.40;99.90
23188;DHT22;11762;59.878;17.686;2024-01-27T15:49:05;-0.40;99.90
23188;DHT22;11762;59.878;17.686;2024-01-27T15:51:32;-0.40;99.90
23188;DHT22;11762;59.878;17.686;2024-01-27T15:53:59;-0.40;99.90
23188;DHT22;11762;59.878;17.686;2024-01-27T15:56:26;-0.50;99.90
23188;DHT22;11762;59.878;17.686;2024-01-27T15:58:53;-0.50;99.90
23188;DHT22;11762;59.878;17.686;2024-01-27T16:01:20;-0.50;99.90
23188;DHT22;11762;59.878;17.686;2024-01-27T16:03:47;-0.40;99.90
23188;DHT22;11762;59.878;17.686;2024-01-27T16:06:16;-0.50;99.90
23188;DHT22;11762;59.878;17.686;2024-01-27T16:08:43;-0.40;99.90
23188;DHT22;11762;59.878;17.686;2024-01-27T16:11:10;-0.40;99.90
23188;DHT22;11762;59.878;17.686;2024-01-27T16:13:37;-0.30;99.90
23188;DHT22;11762;59.878;17.686;2024-01-27T16:16:04;-0.20;99.90
23188;DHT22;11762;59.878;17.686;2024-01-27T16:18:32;-0.10;99.90
23188;DHT22;11762;59.878;17.686;2024-01-27T16:20:59;0.00;99.90
23188;DHT22;11762;59.878;17.686;2024-01-27T16:23:30;0.10;99.90
23188;DHT22;11762;59.878;17.686;2024-01-27T16:25:57;0.20;99.90
23188;DHT22;11762;59.878;17.686;2024-01-27T16:28:24;0.30;99.90
23188;DHT22;11762;59.878;17.686;2024-01-27T16:30:52;0.30;99.90
23188;DHT22;11762;59.878;17.686;2024-01-27T16:33:19;0.50;99.90
23188;DHT22;11762;59.878;17.686;2024-01-27T16:35:46;0.50;99.90
23188;DHT22;11762;59.878;17.686;2024-01-27T16:38:13;0.60;99.90
23188;DHT22;11762;59.878;17.686;2024-01-27T16:40:43;0.70;99.90
23188;DHT22;11762;59.878;17.686;2024-01-27T16:43:10;0.80;99.90
23188;DHT22;11762;59.878;17.686;2024-01-27T16:45:37;0.80;99.90
23188;DHT22;11762;59.878;17.686;2024-01-27T16:48:05;0.90;99.90
23188;DHT22;11762;59.878;17.686;2024-01-27T16:50:32;1.00;99.90
23188;DHT22;11762;59.878;17.686;2024-01-27T16:52:59;1.00;99.90
23188;DHT22;11762;59.878;17.686;2024-01-27T16:55:26;1.10;99.90
23188;DHT22;11762;59.878;17.686;2024-01-27T16:57:54;1.10;99.90
23188;DHT22;11762;59.878;17.686;2024-01-27T17:00:21;1.10;99.90
23188;DHT22;11762;59.878;17.686;2024-01-27T17:02:50;1.20;99.90
23188;DHT22;11762;59.878;17.686;2024-01-27T17:05:17;1.20;99.90
23188;DHT22;11762;59.878;17.686;2024-01-27T17:07:44;1.20;99.90
23188;DHT22;11762;59.878;17.686;2024-01-27T17:10:11;1.30;99.90
23188;DHT22;11762;59.878;17.686;2024-01-27T17:12:38;1.30;99.90
23188;DHT22;11762;59.878;17.686;2024-01-27T17:15:07;1.40;99.90
23188;DHT22;11762;59.878;17.686;2024-01-27T17:17:35;1.40;99.90
23188;DHT22;11762;59.878;17.686;2024-01-27T17:20:02;1.40;99.90
23188;DHT22;11762;59.878;17.686;2024-01-27T17:22:29;1.40;99.90
23188;DHT22;11762;59.878;17.686;2024-01-27T17:24:56;1.50;99.90
23188;DHT22;11762;59.878;17.686;2024-01-27T17:27:27;1.50;99.90
23188;DHT22;11762;59.878;17.686;2024-01-27T17:29:54;1.60;99.90
23188;DHT22;11762;59.878;17.686;2024-01-27T17:32:23;1.60;99.90
23188;DHT22;11762;59.878;17.686;2024-01-27T17:34:52;1.60;99.90
23188;DHT22;11762;59.878;17.686;2024-01-27T17:37:19;1.60;99.90
23188;DHT22;11762;59.878;17.686;2024-01-27T17:39:47;1.70;99.90
23188;DHT22;11762;59.878;17.686;2024-01-27T17:42:15;1.70;99.90
23188;DHT22;11762;59.878;17.686;2024-01-27T17:44:42;1.70;99.90
23188;DHT22;11762;59.878;17.686;2024-01-27T17:47:09;1.80;99.90
23188;DHT22;11762;59.878;17.686;2024-01-27T17:49:38;1.80;99.90
23188;DHT22;11762;59.878;17.686;2024-01-27T17:52:05;1.80;99.90
23188;DHT22;11762;59.878;17.686;2024-01-27T17:54:32;1.90;99.90
23188;DHT22;11762;59.878;17.686;2024-01-27T17:56:59;1.90;99.90
23188;DHT22;11762;59.878;17.686;2024-01-27T17:59:26;1.90;99.90
23188;DHT22;11762;59.878;17.686;2024-01-27T18:01:53;1.90;99.90
23188;DHT22;11762;59.878;17.686;2024-01-27T18:04:20;2.00;99.90
23188;DHT22;11762;59.878;17.686;2024-01-27T18:06:49;2.00;99.90